createdAt,value
2022-11-16T00:01:33.237Z,102.97
2022-11-16T00:04:02.290Z,108.35
2022-11-16T00:06:29.747Z,107.90
2022-11-16T00:09:18.247Z,109.53
2022-11-16T00:11:46.169Z,113.85
2022-11-16T00:14:13.159Z,116.85
2022-11-16T00:16:40.504Z,111.10
2022-11-16T00:19:08.454Z,112.47
2022-11-16T00:21:35.630Z,116.40
2022-11-16T00:24:03.120Z,117.10
2022-11-16T00:26:30.480Z,121.38
2022-11-16T00:28:57.671Z,124.82
2022-11-16T00:31:25.223Z,128.07
2022-11-16T00:33:52.720Z,127.05
2022-11-16T00:36:19.728Z,130.98
2022-11-16T00:38:47.389Z,128.55
2022-11-16T00:41:14.613Z,127.20
2022-11-16T00:43:41.763Z,127.68
2022-11-16T00:46:09.689Z,124.38
2022-11-16T00:48:36.970Z,125.50
2022-11-16T00:51:05.067Z,128.88
2022-11-16T00:53:32.514Z,131.05
2022-11-16T00:55:59.567Z,129.38
2022-11-16T00:58:26.502Z,129.73
2022-11-16T01:01:09.712Z,129.20
2022-11-16T01:03:37.794Z,134.70
2022-11-16T01:06:07.407Z,134.73
2022-11-16T01:08:37.200Z,140.75
2022-11-16T01:11:23.466Z,137.52
2022-11-16T01:13:50.466Z,139.63
2022-11-16T01:16:20.086Z,139.10
2022-11-16T01:18:52.661Z,145.10
2022-11-16T01:21:20.282Z,145.50
2022-11-16T01:23:47.481Z,147.35
2022-11-16T01:26:14.771Z,142.02
2022-11-16T01:28:42.833Z,144.52
2022-11-16T01:31:11.739Z,141.20
2022-11-16T01:33:39.830Z,136.55
2022-11-16T01:36:17.172Z,140.32
2022-11-16T01:38:46.152Z,143.90
2022-11-16T01:41:20.760Z,143.35
2022-11-16T01:44:06.352Z,138.07
2022-11-16T01:46:43.219Z,132.32
2022-11-16T01:49:17.083Z,133.02
2022-11-16T01:51:49.901Z,138.35
2022-11-16T01:54:18.605Z,136.88
2022-11-16T01:56:57.210Z,133.02
2022-11-16T01:59:32.736Z,135.48
2022-11-16T02:02:01.065Z,134.13
2022-11-16T02:04:29.325Z,131.48
2022-11-16T02:07:28.622Z,133.45
2022-11-16T02:10:34.437Z,131.80
2022-11-16T02:13:27.477Z,125.15
2022-11-16T02:16:05.706Z,123.35
2022-11-16T02:18:45.132Z,123.00
2022-11-16T02:21:21.510Z,118.68
2022-11-16T02:24:12.990Z,120.82
2022-11-16T02:27:00.580Z,116.30
2022-11-16T02:29:30.057Z,116.40
2022-11-16T02:32:19.321Z,118.88
2022-11-16T02:34:57.448Z,117.15
2022-11-16T02:37:28.549Z,117.30
2022-11-16T02:39:59.345Z,119.93
2022-11-16T02:42:38.070Z,123.18
2022-11-16T02:45:08.948Z,125.40
2022-11-16T02:47:36.851Z,124.30
2022-11-16T02:50:16.480Z,126.75
2022-11-16T02:52:43.343Z,125.55
2022-11-16T02:55:11.552Z,127.13
2022-11-16T02:58:01.168Z,125.35
2022-11-16T03:00:46.811Z,122.95
2022-11-16T03:03:32.290Z,114.68
2022-11-16T03:06:08.829Z,116.22
2022-11-16T03:08:41.225Z,122.35
2022-11-16T03:11:30.590Z,122.20
2022-11-16T03:14:05.789Z,121.75
2022-11-16T03:16:40.790Z,117.70
2022-11-16T03:19:12.537Z,125.28
2022-11-16T03:22:16.250Z,123.20
2022-11-16T03:24:43.954Z,128.32
2022-11-16T03:27:45.015Z,129.32
2022-11-16T03:30:23.523Z,128.10
2022-11-16T03:33:19.876Z,120.88
2022-11-16T03:36:26.653Z,125.38
2022-11-16T03:38:56.199Z,124.57
2022-11-16T03:41:24.585Z,123.75
2022-11-16T03:43:55.144Z,125.43
2022-11-16T03:46:22.777Z,124.80
2022-11-16T03:48:57.700Z,125.10
2022-11-16T03:51:28.387Z,126.53
2022-11-16T03:53:55.542Z,118.30
2022-11-16T03:56:22.797Z,120.70
2022-11-16T03:58:49.856Z,116.45
2022-11-16T04:01:18.124Z,111.53
2022-11-16T04:03:47.253Z,115.03
2022-11-16T04:06:33.817Z,114.32
2022-11-16T04:09:19.839Z,112.13
2022-11-16T04:12:05.735Z,114.25
2022-11-16T04:14:51.661Z,109.25
2022-11-16T04:17:38.335Z,109.35
2022-11-16T04:20:24.551Z,110.15
2022-11-16T04:23:12.909Z,106.03
2022-11-16T04:25:43.302Z,109.57
2022-11-16T04:28:19.274Z,110.18
2022-11-16T04:31:12.125Z,114.03
2022-11-16T04:34:00.636Z,113.28
2022-11-16T04:36:46.849Z,111.60
2022-11-16T04:39:14.137Z,112.25
2022-11-16T04:42:00.009Z,117.35
2022-11-16T04:44:49.896Z,110.43
2022-11-16T04:47:17.973Z,111.82
2022-11-16T04:49:47.065Z,111.70
2022-11-16T04:52:13.882Z,108.15
2022-11-16T04:54:41.869Z,106.95
2022-11-16T04:57:09.799Z,115.00
2022-11-16T04:59:36.870Z,115.15
2022-11-16T05:02:10.718Z,116.63
2022-11-16T05:04:51.679Z,117.97
2022-11-16T05:07:20.242Z,109.57
2022-11-16T05:09:49.373Z,109.80
2022-11-16T05:12:22.564Z,105.93
2022-11-16T05:14:55.500Z,106.88
2022-11-16T05:17:26.441Z,107.25
2022-11-16T05:20:13.777Z,115.55
2022-11-16T05:22:55.536Z,110.68
2022-11-16T05:25:24.369Z,114.13
2022-11-16T05:27:51.929Z,116.15
2022-11-16T05:30:19.048Z,113.93
2022-11-16T05:32:46.065Z,114.63
2022-11-16T05:35:15.098Z,114.15
2022-11-16T05:37:43.298Z,113.50
2022-11-16T05:40:11.154Z,117.60
2022-11-16T05:42:44.600Z,111.55
2022-11-16T05:45:13.277Z,115.72
2022-11-16T05:47:42.969Z,116.57
2022-11-16T05:50:10.219Z,119.93
2022-11-16T05:52:40.516Z,117.82
2022-11-16T05:55:10.658Z,116.18
2022-11-16T05:57:43.204Z,118.20
2022-11-16T06:00:11.793Z,119.70
2022-11-16T06:02:48.864Z,122.80
2022-11-16T06:08:25.670Z,127.60
2022-11-16T06:10:54.074Z,122.20
2022-11-16T06:13:21.058Z,125.03
2022-11-16T06:15:50.832Z,117.03
2022-11-16T06:18:18.602Z,90.70
2022-11-16T06:20:45.602Z,97.05
2022-11-16T06:23:12.659Z,89.53
2022-11-16T06:25:40.084Z,85.95
2022-11-16T06:28:08.370Z,95.90
2022-11-16T06:30:38.386Z,92.63
2022-11-16T06:33:07.068Z,89.90
2022-11-16T06:35:34.453Z,82.88
2022-11-16T06:38:02.670Z,76.45
2022-11-16T06:40:29.696Z,72.65
2022-11-16T06:42:57.435Z,72.10
2022-11-16T06:45:25.557Z,81.65
2022-11-16T06:47:55.711Z,84.30
2022-11-16T06:50:23.281Z,87.78
2022-11-16T06:52:50.499Z,91.18
2022-11-16T06:55:18.704Z,84.82
2022-11-16T06:57:47.060Z,83.18
2022-11-16T07:00:14.576Z,84.63
2022-11-16T07:02:41.584Z,84.75
2022-11-16T07:05:14.985Z,79.13
2022-11-16T07:07:42.480Z,73.95
2022-11-16T07:10:10.037Z,77.43
2022-11-16T07:12:37.356Z,71.32
2022-11-16T07:15:06.158Z,70.28
2022-11-16T07:17:35.892Z,58.53
2022-11-16T07:20:03.410Z,59.78
2022-11-16T07:22:30.489Z,60.63
2022-11-16T07:24:59.160Z,63.70
2022-11-16T07:27:26.274Z,65.78
2022-11-16T07:29:53.375Z,69.97
2022-11-16T07:32:43.335Z,72.65
2022-11-16T07:35:36.539Z,73.40
2022-11-16T07:38:03.501Z,77.60
2022-11-16T07:40:30.553Z,86.40
2022-11-16T07:42:58.857Z,88.43
2022-11-16T07:46:21.318Z,88.90
2022-11-16T07:48:46.618Z,87.32
2022-11-16T07:51:32.300Z,93.55
2022-11-16T07:54:24.951Z,94.97
2022-11-16T07:56:52.362Z,98.57
2022-11-16T07:59:19.327Z,93.60
2022-11-16T08:01:49.454Z,94.03
2022-11-16T08:04:17.633Z,88.13
2022-11-16T08:06:46.903Z,87.82
2022-11-16T08:09:14.223Z,84.40
2022-11-16T08:11:41.709Z,78.55
2022-11-16T08:14:09.268Z,79.07
2022-11-16T08:16:36.269Z,72.53
2022-11-16T08:19:10.752Z,68.97
2022-11-16T08:21:38.063Z,66.63
2022-11-16T08:24:05.184Z,65.47
2022-11-16T08:26:36.505Z,63.83
2022-11-16T08:29:08.631Z,58.50
2022-11-16T08:31:39.295Z,62.28
2022-11-16T08:34:13.353Z,58.67
2022-11-16T08:36:45.019Z,60.85
2022-11-16T08:39:13.204Z,60.22
2022-11-16T08:41:42.237Z,60.10
2022-11-16T08:44:10.640Z,60.53
2022-11-16T08:46:40.214Z,57.70
2022-11-16T08:49:22.899Z,56.03
2022-11-16T08:51:50.085Z,57.63
2022-11-16T08:54:19.050Z,56.53
2022-11-16T08:56:46.616Z,53.55
2022-11-16T08:59:14.039Z,50.95
2022-11-16T09:01:47.247Z,44.92
2022-11-16T09:04:15.260Z,45.58
2022-11-16T09:06:42.549Z,40.63
2022-11-16T09:09:09.467Z,42.40
2022-11-16T09:11:36.445Z,42.03
2022-11-16T09:14:03.533Z,37.15
2022-11-16T09:16:30.571Z,37.35
2022-11-16T09:18:57.481Z,32.20
2022-11-16T09:21:27.056Z,32.00
2022-11-16T09:23:55.646Z,30.43
2022-11-16T09:26:23.645Z,28.23
2022-11-16T09:29:01.038Z,27.50
2022-11-16T09:31:29.237Z,26.97
2022-11-16T09:33:58.859Z,25.15
2022-11-16T09:36:29.152Z,20.67
2022-11-16T09:39:25.835Z,21.58
2022-11-16T09:42:08.412Z,20.93
2022-11-16T09:45:04.383Z,20.70
2022-11-16T09:47:41.608Z,20.48
2022-11-16T09:50:25.403Z,19.20
2022-11-16T09:52:56.434Z,20.15
2022-11-16T09:55:33.730Z,20.63
2022-11-16T09:58:07.755Z,23.07
2022-11-16T10:00:36.178Z,19.63
2022-11-16T10:03:07.128Z,18.77
2022-11-16T10:05:57.377Z,19.00
2022-11-16T10:08:33.513Z,17.33
2022-11-16T10:11:09.410Z,16.83
2022-11-16T10:13:42.101Z,17.17
2022-11-16T10:16:38.168Z,16.52
2022-11-16T10:19:26.037Z,16.55
2022-11-16T10:22:20.237Z,16.43
2022-11-16T10:25:01.166Z,15.40
2022-11-16T10:27:39.745Z,17.30
2022-11-16T10:30:12.110Z,18.70
2022-11-16T10:32:54.577Z,18.67
2022-11-16T10:35:37.622Z,18.90
2022-11-16T10:38:13.453Z,17.55
2022-11-16T10:40:41.411Z,17.00
2022-11-16T10:43:15.612Z,17.17
2022-11-16T10:45:58.107Z,17.43
2022-11-16T10:48:37.333Z,17.27
2022-11-16T10:51:05.749Z,18.23
2022-11-16T10:53:40.948Z,19.40
2022-11-16T10:56:37.220Z,19.42
2022-11-16T10:59:15.982Z,19.75
2022-11-16T11:01:44.357Z,18.58
2022-11-16T11:04:20.498Z,17.35
2022-11-16T11:06:51.457Z,18.00
2022-11-16T11:09:37.474Z,18.67
2022-11-16T11:12:38.616Z,17.95
2022-11-16T11:15:11.300Z,17.80
2022-11-16T11:17:47.464Z,19.15
2022-11-16T11:20:17.543Z,19.88
2022-11-16T11:22:53.261Z,19.55
2022-11-16T11:25:29.490Z,18.98
2022-11-16T11:28:19.081Z,18.60
2022-11-16T11:30:57.605Z,18.93
2022-11-16T11:33:34.899Z,19.10
2022-11-16T11:36:05.493Z,19.08
2022-11-16T11:38:33.358Z,19.25
2022-11-16T11:41:05.063Z,19.63
2022-11-16T11:43:34.525Z,19.08
2022-11-16T11:46:21.539Z,19.25
2022-11-16T11:48:56.767Z,20.50
2022-11-16T11:51:33.777Z,20.33
2022-11-16T11:54:03.671Z,20.73
2022-11-16T11:56:34.172Z,20.63
2022-11-16T11:59:04.374Z,22.30
2022-11-16T12:01:52.405Z,21.20
2022-11-16T12:04:47.284Z,19.77
2022-11-16T12:07:36.893Z,19.40
2022-11-16T12:10:14.473Z,19.43
2022-11-16T12:12:55.592Z,18.60
2022-11-16T12:15:40.480Z,18.07
2022-11-16T12:18:22.187Z,17.40
2022-11-16T12:21:14.008Z,16.47
2022-11-16T12:23:52.995Z,16.30
2022-11-16T12:26:29.178Z,16.40
2022-11-16T12:29:38.314Z,15.83
2022-11-16T12:32:15.416Z,21.30
2022-11-16T12:35:01.499Z,17.03
2022-11-16T12:37:42.745Z,17.70
2022-11-16T12:40:25.206Z,17.37
2022-11-16T12:43:11.060Z,18.63
2022-11-16T12:46:14.126Z,22.20
2022-11-16T12:48:52.752Z,24.10
2022-11-16T12:51:38.123Z,22.33
2022-11-16T12:54:23.849Z,21.53
2022-11-16T12:57:19.734Z,19.13
2022-11-16T13:00:02.114Z,19.07
2022-11-16T13:02:57.155Z,13.00
2022-11-16T13:05:39.523Z,10.50
2022-11-16T13:08:12.091Z,8.70
2022-11-16T13:10:45.731Z,11.63
2022-11-16T13:13:36.054Z,7.67
2022-11-16T13:16:06.727Z,6.80
2022-11-16T13:18:40.325Z,7.63
2022-11-16T13:21:29.655Z,8.23
2022-11-16T13:24:35.200Z,7.03
2022-11-16T13:27:24.209Z,7.83
2022-11-16T13:29:59.448Z,7.60
2022-11-16T13:32:32.335Z,8.20
2022-11-16T13:35:01.482Z,7.87
2022-11-16T13:37:40.886Z,8.10
2022-11-16T13:40:08.649Z,9.43
2022-11-16T13:42:56.307Z,9.67
2022-11-16T13:45:24.240Z,9.57
2022-11-16T13:47:57.579Z,10.20
2022-11-16T13:50:38.167Z,10.57
2022-11-16T13:56:05.018Z,11.70
2022-11-16T13:58:34.120Z,12.67
2022-11-16T14:01:10.524Z,13.23
2022-11-16T14:03:39.719Z,12.40
2022-11-16T14:06:13.615Z,11.40
2022-11-16T14:08:40.520Z,10.07
2022-11-16T14:11:33.876Z,9.20
2022-11-16T14:14:05.800Z,9.43
2022-11-16T14:16:42.867Z,8.87
2022-11-16T14:19:47.692Z,8.90
2022-11-16T14:22:45.361Z,8.33
2022-11-16T14:25:26.868Z,8.03
2022-11-16T14:28:00.108Z,7.80
2022-11-16T14:30:36.120Z,8.57
2022-11-16T14:33:03.158Z,7.93
2022-11-16T14:35:34.259Z,8.47
2022-11-16T14:38:34.165Z,8.10
2022-11-16T14:41:03.460Z,8.53
2022-11-16T14:43:44.520Z,8.43
2022-11-16T14:46:22.554Z,8.87
2022-11-16T14:48:50.413Z,8.87
2022-11-16T14:51:22.320Z,8.47
2022-11-16T14:53:53.385Z,9.30
2022-11-16T14:56:20.472Z,8.40
2022-11-16T14:58:52.136Z,10.93
2022-11-16T15:01:23.240Z,8.93
2022-11-16T15:03:55.911Z,7.53
2022-11-16T15:06:24.892Z,10.07
2022-11-16T15:09:04.676Z,8.50
2022-11-16T15:11:55.075Z,9.20
2022-11-16T15:14:29.451Z,9.17
2022-11-16T15:16:57.968Z,8.63
2022-11-16T15:19:29.037Z,8.23
2022-11-16T15:21:59.387Z,8.57
2022-11-16T15:24:33.708Z,9.00
2022-11-16T15:27:28.185Z,9.43
2022-11-16T15:29:55.395Z,10.70
2022-11-16T15:32:22.246Z,10.13
2022-11-16T15:34:54.504Z,10.67
2022-11-16T15:37:29.340Z,9.83
2022-11-16T15:39:58.779Z,9.47
2022-11-16T15:42:28.151Z,9.83
2022-11-16T15:44:55.694Z,9.80
2022-11-16T15:47:23.593Z,10.10
2022-11-16T15:49:53.142Z,10.43
2022-11-16T15:52:59.691Z,10.10
2022-11-16T15:55:37.716Z,9.33
2022-11-16T15:58:15.486Z,9.27
2022-11-16T16:00:46.747Z,11.30
2022-11-16T16:03:23.885Z,9.73
2022-11-16T16:05:51.795Z,9.43
2022-11-16T16:08:28.625Z,9.73
2022-11-16T16:11:21.433Z,9.53
2022-11-16T16:14:00.062Z,9.57
2022-11-16T16:16:29.310Z,9.37
2022-11-16T16:19:03.655Z,9.77
2022-11-16T16:21:45.371Z,9.40
2022-11-16T16:24:35.348Z,9.17
2022-11-16T16:27:02.317Z,9.83
2022-11-16T16:29:29.336Z,7.73
2022-11-16T16:31:56.544Z,9.13
2022-11-16T16:34:23.449Z,9.13
2022-11-16T16:36:50.663Z,11.77
2022-11-16T16:39:17.602Z,9.93
2022-11-16T16:41:44.585Z,9.23
2022-11-16T16:44:15.513Z,9.17
2022-11-16T16:46:42.768Z,9.60
2022-11-16T16:49:10.743Z,9.47
2022-11-16T16:51:37.603Z,9.50
2022-11-16T16:54:04.521Z,9.67
2022-11-16T16:56:31.426Z,10.27
2022-11-16T16:58:58.417Z,12.03
2022-11-16T17:01:26.798Z,12.43
2022-11-16T17:03:53.900Z,11.53
2022-11-16T17:06:21.054Z,11.80
2022-11-16T17:08:48.129Z,10.30
2022-11-16T17:11:16.388Z,9.10
2022-11-16T17:13:43.734Z,7.83
2022-11-16T17:16:10.590Z,8.10
2022-11-16T17:18:37.563Z,7.30
2022-11-16T17:21:09.077Z,7.00
2022-11-16T17:23:36.828Z,7.00
2022-11-16T17:26:08.650Z,6.60
2022-11-16T17:28:35.895Z,9.30
2022-11-16T17:31:04.782Z,11.37
2022-11-16T17:33:38.242Z,10.00
2022-11-16T17:36:06.868Z,12.60
2022-11-16T17:38:34.801Z,13.67
2022-11-16T17:41:06.166Z,14.47
2022-11-16T17:43:33.736Z,14.43
2022-11-16T17:46:18.342Z,13.33
2022-11-16T17:48:47.285Z,12.13
2022-11-16T17:51:16.877Z,12.13
2022-11-16T17:53:44.386Z,12.23
2022-11-16T17:56:21.231Z,10.33
2022-11-16T17:58:50.431Z,8.20
2022-11-16T18:01:18.475Z,7.73
2022-11-16T18:03:45.757Z,7.03
2022-11-16T18:06:15.282Z,6.67
2022-11-16T18:08:43.747Z,7.80
2022-11-16T18:11:13.775Z,8.47
2022-11-16T18:13:41.056Z,7.33
2022-11-16T18:16:12.669Z,7.53
2022-11-16T18:18:39.944Z,7.17
2022-11-16T18:21:08.592Z,7.73
2022-11-16T18:23:37.525Z,8.33
2022-11-16T18:26:09.482Z,8.00
2022-11-16T18:28:37.063Z,8.30
2022-11-16T18:31:07.014Z,7.97
2022-11-16T18:33:35.902Z,7.30
2022-11-16T18:36:05.158Z,7.63
2022-11-16T18:38:32.658Z,7.63
2022-11-16T18:41:12.378Z,8.10
2022-11-16T18:43:41.610Z,6.93
2022-11-16T18:46:09.433Z,6.53
2022-11-16T18:48:36.729Z,6.80
2022-11-16T18:51:05.510Z,6.80
2022-11-16T18:53:33.685Z,6.83
2022-11-16T18:56:01.388Z,6.67
2022-11-16T18:58:49.756Z,6.90
2022-11-16T19:01:17.822Z,6.63
2022-11-16T19:03:45.397Z,7.33
2022-11-16T19:06:14.861Z,8.23
2022-11-16T19:08:42.597Z,12.20
2022-11-16T19:11:11.660Z,8.10
2022-11-16T19:13:39.885Z,7.50
2022-11-16T19:16:07.646Z,7.73
2022-11-16T19:18:35.907Z,7.03
2022-11-16T19:21:04.447Z,7.60
2022-11-16T19:23:36.445Z,8.70
2022-11-16T19:26:06.817Z,9.80
2022-11-16T19:28:37.920Z,8.63
2022-11-16T19:31:12.738Z,6.47
2022-11-16T19:33:40.169Z,8.37
2022-11-16T19:36:08.351Z,9.10
2022-11-16T19:38:35.802Z,9.77
2022-11-16T19:41:03.402Z,9.17
2022-11-16T19:43:30.704Z,10.23
2022-11-16T19:46:02.460Z,9.90
2022-11-16T19:48:31.053Z,7.17
2022-11-16T19:50:58.390Z,7.47
2022-11-16T19:53:25.766Z,7.10
2022-11-16T19:55:54.711Z,7.17
2022-11-16T19:58:22.165Z,9.20
2022-11-16T20:00:49.951Z,9.97
2022-11-16T20:03:17.468Z,11.57
2022-11-16T20:05:44.928Z,10.57
2022-11-16T20:08:12.372Z,11.30
2022-11-16T20:10:39.611Z,13.53
2022-11-16T20:13:06.881Z,13.03
2022-11-16T20:15:34.198Z,13.90
2022-11-16T20:18:01.464Z,12.53
2022-11-16T20:20:28.876Z,13.77
2022-11-16T20:22:56.217Z,14.60
2022-11-16T20:25:23.740Z,15.30
2022-11-16T20:27:51.044Z,14.53
2022-11-16T20:30:18.390Z,16.10
2022-11-16T20:32:46.228Z,15.23
2022-11-16T20:35:18.787Z,16.70
2022-11-16T20:37:47.378Z,16.40
2022-11-16T20:40:15.127Z,16.60
2022-11-16T20:42:42.486Z,14.90
2022-11-16T20:45:10.199Z,15.33
2022-11-16T20:47:37.659Z,14.70
2022-11-16T20:50:05.261Z,14.87
2022-11-16T20:52:33.590Z,16.13
2022-11-16T20:55:02.087Z,13.40
2022-11-16T20:57:29.821Z,12.90
2022-11-16T20:59:57.302Z,8.70
2022-11-16T21:02:24.795Z,9.23
2022-11-16T21:04:56.146Z,10.20
2022-11-16T21:07:27.538Z,9.47
2022-11-16T21:10:13.506Z,9.90
2022-11-16T21:12:59.706Z,8.27
2022-11-16T21:15:27.136Z,8.23
2022-11-16T21:17:54.525Z,8.00
2022-11-16T21:20:29.014Z,7.50
2022-11-16T21:22:56.603Z,7.07
2022-11-16T21:25:23.996Z,6.73
2022-11-16T21:27:51.320Z,6.73
2022-11-16T21:30:18.808Z,7.20
2022-11-16T21:32:46.120Z,7.30
2022-11-16T21:35:13.611Z,7.67
2022-11-16T21:37:41.012Z,6.80
2022-11-16T21:40:08.702Z,7.73
2022-11-16T21:42:36.014Z,7.73
2022-11-16T21:45:03.489Z,8.10
2022-11-16T21:47:30.897Z,8.37
2022-11-16T21:52:45.874Z,8.13
2022-11-16T21:55:13.298Z,7.23
2022-11-16T21:57:40.670Z,7.00
2022-11-16T22:00:08.347Z,7.17
2022-11-16T22:02:41.604Z,7.23
2022-11-16T22:05:28.242Z,8.27
2022-11-16T22:07:55.631Z,8.87
2022-11-16T22:10:23.035Z,10.10
2022-11-16T22:12:50.451Z,10.10
2022-11-16T22:15:18.075Z,9.00
2022-11-16T22:17:45.510Z,8.37
2022-11-16T22:20:13.268Z,7.20
2022-11-16T22:22:40.592Z,7.00
2022-11-16T22:25:08.144Z,6.93
2022-11-16T22:27:46.987Z,6.47
2022-11-16T22:30:23.061Z,6.97
2022-11-16T22:32:50.488Z,6.93
2022-11-16T22:35:17.863Z,7.57
2022-11-16T22:37:45.203Z,7.20
2022-11-16T22:40:17.577Z,7.67
2022-11-16T22:42:45.434Z,7.30
2022-11-16T22:45:13.131Z,6.27
2022-11-16T22:47:40.594Z,5.40
2022-11-16T22:50:08.050Z,6.30
2022-11-16T22:52:35.436Z,6.30
2022-11-16T22:55:02.748Z,6.20
2022-11-16T22:57:30.181Z,5.77
2022-11-16T22:59:57.458Z,5.47
2022-11-16T23:02:25.092Z,4.97
2022-11-16T23:04:52.403Z,5.50
2022-11-16T23:07:19.758Z,5.53
2022-11-16T23:09:47.181Z,5.60
2022-11-16T23:12:33.259Z,4.20
2022-11-16T23:15:19.474Z,4.53
2022-11-16T23:17:46.872Z,4.67
2022-11-16T23:20:33.145Z,3.80
2022-11-16T23:23:19.383Z,4.50
2022-11-16T23:26:05.305Z,5.00
2022-11-16T23:28:32.682Z,4.90
2022-11-16T23:31:00.093Z,5.30
2022-11-16T23:33:44.019Z,5.03
2022-11-16T23:36:15.265Z,5.33
2022-11-16T23:38:42.688Z,5.50
2022-11-16T23:41:28.999Z,6.37
2022-11-16T23:43:59.631Z,7.20
2022-11-16T23:46:31.071Z,7.90
2022-11-16T23:48:58.865Z,7.37
2022-11-16T23:51:26.209Z,5.83
2022-11-16T23:53:54.060Z,6.30
2022-11-16T23:56:21.766Z,6.70
2022-11-16T23:58:49.564Z,7.97
